Time;durP1;ratioP1;P1;durP2;ratioP2;P2;SDS_P1;SDS_P2;PMS_P1;PMS_P2;Temp;Humidity;BMP_temperature;BMP_pressure;BME280_temperature;BME280_humidity;BME280_pressure;Samples;Min_cycle;Max_cycle;Signal;HPM_P1;HPM_P2
2023/04/06 00:01:46;;;;;;;12.53;7.53;;;2.00;1.00;;;;;;5094332;28;20573;-64
2023/04/06 00:04:12;;;;;;;9.17;7.73;;;1.90;1.00;;;;;;5095438;28;20166;-65
2023/04/06 00:06:38;;;;;;;13.90;7.87;;;1.90;1.00;;;;;;5095266;28;20408;-65
2023/04/06 00:09:04;;;;;;;9.27;8.40;;;1.90;1.00;;;;;;5095103;28;20209;-65
2023/04/06 00:11:29;;;;;;;11.07;8.47;;;1.90;1.00;;;;;;5093839;28;20172;-64
2023/04/06 00:13:55;;;;;;;9.60;8.10;;;1.80;1.00;;;;;;5095113;28;20207;-65
2023/04/06 00:16:21;;;;;;;9.33;8.37;;;1.80;1.00;;;;;;5095014;28;20411;-65
2023/04/06 00:18:47;;;;;;;9.33;8.40;;;1.80;1.00;;;;;;5095120;28;20177;-65
2023/04/06 00:21:14;;;;;;;9.67;7.10;;;1.80;1.00;;;;;;5094323;28;20618;-65
2023/04/06 00:23:40;;;;;;;9.17;6.90;;;1.80;1.00;;;;;;5094761;28;20203;-65
2023/04/06 00:26:06;;;;;;;12.90;10.07;;;1.80;1.00;;;;;;5094804;28;20400;-65
2023/04/06 00:28:32;;;;;;;10.30;7.97;;;1.80;1.00;;;;;;5094686;28;21017;-65
2023/04/06 00:30:57;;;;;;;9.53;7.33;;;1.80;1.00;;;;;;5093610;28;20174;-64
2023/04/06 00:33:23;;;;;;;8.10;7.33;;;1.80;1.00;;;;;;5094455;28;20193;-65
2023/04/06 00:35:50;;;;;;;9.57;8.67;;;1.80;1.00;;;;;;5094649;28;20503;-65
2023/04/06 00:38:16;;;;;;;8.73;7.43;;;1.80;1.00;;;;;;5094627;28;20520;-64
2023/04/06 00:40:44;;;;;;;10.93;9.77;;;1.70;1.00;;;;;;5093925;28;20408;-65
2023/04/06 00:43:11;;;;;;;10.90;9.33;;;1.70;1.00;;;;;;5094395;28;20434;-64
2023/04/06 00:45:41;;;;;;;10.17;8.30;;;1.70;1.00;;;;;;5094318;28;20403;-65
2023/04/06 00:48:07;;;;;;;11.17;9.07;;;1.60;1.00;;;;;;5094388;28;20459;-64
2023/04/06 00:50:34;;;;;;;10.17;8.07;;;1.60;1.00;;;;;;5093152;28;20435;-73
2023/04/06 00:53:00;;;;;;;10.03;7.47;;;1.70;1.00;;;;;;5094231;28;20442;-64
2023/04/06 00:55:29;;;;;;;15.50;8.97;;;1.60;1.00;;;;;;5094463;28;20418;-66
2023/04/06 00:57:58;;;;;;;10.70;7.70;;;1.60;1.00;;;;;;5094103;28;20449;-65
2023/04/06 01:00:24;;;;;;;11.47;7.20;;;1.60;1.00;;;;;;5093499;28;20484;-66
2023/04/06 01:02:50;;;;;;;13.00;8.57;;;1.50;1.00;;;;;;5075859;28;21022;-65
2023/04/06 01:05:16;;;;;;;8.20;7.30;;;1.50;1.00;;;;;;5094052;28;20495;-65
2023/04/06 01:07:42;;;;;;;10.90;9.80;;;1.50;1.00;;;;;;5093266;28;20479;-65
2023/04/06 01:10:08;;;;;;;8.70;7.80;;;1.50;1.00;;;;;;5093369;28;20435;-65
2023/04/06 01:12:33;;;;;;;12.50;7.80;;;1.50;1.00;;;;;;5093837;28;20194;-65
2023/04/06 01:14:59;;;;;;;12.40;7.60;;;1.50;1.00;;;;;;5093935;28;20804;-65
2023/04/06 01:17:25;;;;;;;9.67;7.80;;;1.50;1.00;;;;;;5093972;28;20170;-64
2023/04/06 01:19:53;;;;;;;9.23;7.43;;;1.40;1.00;;;;;;5093522;28;20593;-64
2023/04/06 01:22:19;;;;;;;11.10;7.60;;;1.40;1.00;;;;;;5093144;28;20422;-65
2023/04/06 01:24:46;;;;;;;16.83;7.90;;;1.40;1.00;;;;;;5093188;28;20829;-65
2023/04/06 01:27:12;;;;;;;8.77;7.60;;;1.40;1.00;;;;;;5093662;28;20391;-65
2023/04/06 01:29:40;;;;;;;11.60;8.47;;;1.30;1.00;;;;;;5093581;28;20451;-65
2023/04/06 01:32:07;;;;;;;11.40;8.13;;;1.30;1.00;;;;;;5092908;28;20415;-64
2023/04/06 01:34:33;;;;;;;8.30;7.00;;;1.30;1.00;;;;;;5093554;28;20407;-65
2023/04/06 01:36:59;;;;;;;7.67;7.07;;;1.30;1.00;;;;;;5093549;28;20776;-65
2023/04/06 01:39:25;;;;;;;8.03;7.33;;;1.30;1.00;;;;;;5075144;28;20649;-64
2023/04/06 01:41:51;;;;;;;7.40;6.13;;;1.30;1.00;;;;;;5092345;28;20427;-65
2023/04/06 01:44:18;;;;;;;7.50;6.47;;;1.30;1.00;;;;;;5093275;28;20818;-65
2023/04/06 01:46:45;;;;;;;10.97;7.33;;;1.30;1.00;;;;;;5093475;28;20871;-65
2023/04/06 01:49:11;;;;;;;10.43;7.87;;;1.30;1.00;;;;;;5093247;28;20451;-65
2023/04/06 01:51:36;;;;;;;13.97;8.50;;;1.30;1.00;;;;;;5074399;28;20424;-65
2023/04/06 01:54:02;;;;;;;17.70;9.57;;;1.30;1.00;;;;;;5093398;28;20522;-65
2023/04/06 01:56:28;;;;;;;13.70;8.00;;;1.30;1.00;;;;;;5093117;28;20189;-65
2023/04/06 01:58:54;;;;;;;13.90;8.57;;;1.20;1.00;;;;;;5092814;28;20406;-64
2023/04/06 02:01:20;;;;;;;25.53;10.20;;;1.20;1.00;;;;;;5092475;28;20209;-65
2023/04/06 02:03:46;;;;;;;13.73;8.90;;;1.20;1.00;;;;;;5093144;28;20454;-65
2023/04/06 02:06:12;;;;;;;15.60;10.13;;;1.20;1.00;;;;;;5093212;28;20260;-64
2023/04/06 02:08:37;;;;;;;12.77;9.80;;;1.20;1.00;;;;;;5093020;28;20228;-64
2023/04/06 02:11:03;;;;;;;12.37;10.00;;;1.20;1.00;;;;;;5092402;28;20182;-65
2023/04/06 02:13:29;;;;;;;13.63;10.03;;;1.20;1.00;;;;;;5093637;28;20189;-64
2023/04/06 02:15:55;;;;;;;15.53;9.87;;;1.20;1.00;;;;;;5099182;28;20427;-65
2023/04/06 02:18:21;;;;;;;11.90;8.90;;;1.30;1.00;;;;;;5099784;28;20282;-65
2023/04/06 02:20:47;;;;;;;19.80;10.33;;;1.30;1.00;;;;;;5099117;28;20425;-64
2023/04/06 02:23:12;;;;;;;15.27;11.27;;;1.30;1.00;;;;;;5099647;28;20181;-65
2023/04/06 02:25:38;;;;;;;18.47;12.70;;;1.30;1.00;;;;;;5099651;28;20402;-65
2023/04/06 02:28:04;;;;;;;9.60;8.63;;;1.30;1.00;;;;;;5099626;28;20205;-65
2023/04/06 02:30:31;;;;;;;10.60;6.70;;;1.20;1.00;;;;;;5098986;28;20163;-65
2023/04/06 02:32:57;;;;;;;8.37;7.20;;;1.00;1.00;;;;;;5099533;28;20222;-65
2023/04/06 02:35:24;;;;;;;12.63;8.03;;;0.80;1.00;;;;;;5099074;28;20478;-65
2023/04/06 02:37:50;;;;;;;10.07;8.00;;;0.70;1.00;;;;;;5099548;28;20432;-65
2023/04/06 02:40:16;;;;;;;12.70;9.17;;;0.70;1.00;;;;;;5098878;28;20411;-65
2023/04/06 02:42:42;;;;;;;9.10;8.20;;;0.70;1.00;;;;;;5099451;28;20273;-65
2023/04/06 02:45:08;;;;;;;8.83;8.03;;;0.70;1.00;;;;;;5099510;28;20200;-65
2023/04/06 02:47:33;;;;;;;14.57;8.30;;;0.70;1.00;;;;;;5099476;28;20181;-65
2023/04/06 02:49:59;;;;;;;9.80;8.73;;;0.80;1.00;;;;;;5099350;28;20398;-65
2023/04/06 02:52:25;;;;;;;13.73;9.60;;;0.80;1.00;;;;;;5098926;28;20184;-65
2023/04/06 02:54:51;;;;;;;17.47;9.37;;;0.80;1.00;;;;;;5098869;28;20395;-65
2023/04/06 02:57:17;;;;;;;14.03;10.27;;;0.90;1.00;;;;;;5099363;28;20763;-65
2023/04/06 02:59:43;;;;;;;16.90;10.77;;;1.00;1.00;;;;;;5099438;28;20653;-65
2023/04/06 03:02:09;;;;;;;16.03;11.40;;;1.00;1.00;;;;;;5098680;28;20619;-65
2023/04/06 03:04:36;;;;;;;15.60;11.60;;;1.00;1.00;;;;;;5081316;28;20201;-65
2023/04/06 03:07:02;;;;;;;16.77;12.03;;;1.00;1.00;;;;;;5099338;28;20411;-64
2023/04/06 03:09:27;;;;;;;16.07;13.00;;;1.00;1.00;;;;;;5099375;28;20211;-65
2023/04/06 03:11:53;;;;;;;21.53;14.40;;;1.00;1.00;;;;;;5098171;28;20217;-65
2023/04/06 03:14:21;;;;;;;17.77;12.43;;;1.10;1.00;;;;;;5099093;28;20579;-65
2023/04/06 03:16:48;;;;;;;25.43;13.80;;;1.10;1.00;;;;;;5099185;28;20200;-65
2023/04/06 03:19:14;;;;;;;23.90;14.27;;;1.10;1.00;;;;;;5099264;28;20403;-65
2023/04/06 03:21:41;;;;;;;21.30;14.60;;;1.10;1.00;;;;;;5098329;28;20419;-64
2023/04/06 03:24:07;;;;;;;20.20;14.93;;;1.10;1.00;;;;;;5099272;28;20396;-64
2023/04/06 03:26:33;;;;;;;26.47;15.17;;;1.10;1.00;;;;;;5095410;28;20403;-65
2023/04/06 03:28:59;;;;;;;22.77;14.97;;;1.20;1.00;;;;;;5095306;28;20575;-64
2023/04/06 03:31:25;;;;;;;26.93;16.43;;;1.20;1.00;;;;;;5095140;28;20395;-65
2023/04/06 03:33:51;;;;;;;29.33;17.70;;;1.20;1.00;;;;;;5095761;28;20888;-65
2023/04/06 03:36:16;;;;;;;25.00;16.73;;;1.20;1.00;;;;;;5095717;28;20414;-64
2023/04/06 03:38:42;;;;;;;21.87;14.97;;;1.20;1.00;;;;;;5077682;28;20260;-65
2023/04/06 03:41:08;;;;;;;30.30;17.43;;;1.10;1.00;;;;;;5094915;28;20706;-64
2023/04/06 03:43:34;;;;;;;33.13;19.43;;;1.10;1.00;;;;;;5095542;28;20233;-65
2023/04/06 03:46:00;;;;;;;30.77;19.30;;;1.10;1.00;;;;;;5095169;28;20183;-65
2023/04/06 03:48:25;;;;;;;32.97;17.47;;;1.10;1.00;;;;;;5095124;28;20947;-64
2023/04/06 03:50:51;;;;;;;26.83;18.80;;;1.20;1.00;;;;;;5094829;28;20693;-65
2023/04/06 03:53:17;;;;;;;31.20;19.37;;;1.20;1.00;;;;;;5095208;28;20192;-64
2023/04/06 03:55:42;;;;;;;33.37;19.70;;;1.20;1.00;;;;;;5095390;28;20162;-64
2023/04/06 03:58:08;;;;;;;30.10;17.13;;;1.20;1.00;;;;;;5095408;28;20207;-64
2023/04/06 04:00:34;;;;;;;26.70;17.63;;;1.20;1.00;;;;;;5094752;28;20204;-65
2023/04/06 04:03:01;;;;;;;36.90;21.00;;;1.10;1.00;;;;;;5095132;28;20288;-64
2023/04/06 04:05:27;;;;;;;31.43;18.90;;;1.20;1.00;;;;;;5094591;28;20862;-65
2023/04/06 04:07:53;;;;;;;28.73;17.83;;;1.20;3.00;;;;;;5095174;28;20447;-65
2023/04/06 04:10:18;;;;;;;36.97;21.23;;;1.20;4.70;;;;;;5094466;28;20181;-65
2023/04/06 04:12:44;;;;;;;29.20;17.03;;;1.20;4.00;;;;;;5095218;28;20185;-65
2023/04/06 04:15:10;;;;;;;32.70;18.23;;;1.20;5.70;;;;;;5095037;28;20227;-65
2023/04/06 04:17:36;;;;;;;29.03;18.90;;;1.20;11.40;;;;;;5094984;28;20178;-65
2023/04/06 04:20:01;;;;;;;27.00;17.20;;;1.30;15.80;;;;;;5094851;28;20166;-64
2023/04/06 04:22:27;;;;;;;27.57;17.63;;;1.30;20.30;;;;;;5093793;28;20192;-64
2023/04/06 04:24:53;;;;;;;29.70;18.97;;;1.30;26.00;;;;;;5094957;28;20248;-65
2023/04/06 04:27:20;;;;;;;31.73;19.97;;;1.30;28.00;;;;;;5094869;28;20919;-65
2023/04/06 04:29:46;;;;;;;26.93;17.00;;;1.30;33.40;;;;;;5094765;28;20703;-65
2023/04/06 04:32:11;;;;;;;25.13;16.83;;;1.30;29.40;;;;;;5075942;28;20432;-68
2023/04/06 04:34:40;;;;;;;24.47;15.93;;;1.30;36.70;;;;;;5094738;28;20166;-65
2023/04/06 04:37:06;;;;;;;27.83;18.47;;;1.30;40.90;;;;;;5094303;28;20174;-65
2023/04/06 04:39:32;;;;;;;35.20;17.27;;;1.30;41.90;;;;;;5094029;28;20412;-65
2023/04/06 04:41:58;;;;;;;26.80;18.60;;;1.30;39.00;;;;;;5093743;28;20470;-64
2023/04/06 04:44:23;;;;;;;27.07;18.00;;;1.30;45.60;;;;;;5094551;28;20407;-66
2023/04/06 04:46:49;;;;;;;30.17;17.90;;;1.30;47.70;;;;;;5094574;28;20621;-64
2023/04/06 04:49:15;;;;;;;27.80;16.50;;;1.30;50.00;;;;;;5094263;28;20414;-64
2023/04/06 04:51:41;;;;;;;26.97;18.67;;;1.30;52.30;;;;;;5093489;28;20775;-65
2023/04/06 04:54:07;;;;;;;37.70;21.30;;;1.30;50.00;;;;;;5094375;28;20248;-64
2023/04/06 04:56:32;;;;;;;31.97;20.73;;;1.30;55.90;;;;;;5094202;28;20177;-64
2023/04/06 04:58:58;;;;;;;32.40;18.53;;;1.30;53.90;;;;;;5093651;28;20177;-65
2023/04/06 05:01:24;;;;;;;27.97;16.33;;;1.30;59.80;;;;;;5093460;28;20188;-65
2023/04/06 05:03:50;;;;;;;27.67;16.17;;;1.30;56.10;;;;;;5094036;28;20257;-64
2023/04/06 05:06:15;;;;;;;23.23;14.20;;;1.30;61.30;;;;;;5094052;28;20392;-65
2023/04/06 05:08:42;;;;;;;33.77;17.87;;;1.30;62.40;;;;;;5094040;28;20461;-65
2023/04/06 05:11:08;;;;;;;27.37;16.00;;;1.30;64.90;;;;;;5093228;28;20354;-65
2023/04/06 05:13:34;;;;;;;26.57;16.23;;;1.30;66.00;;;;;;5093705;28;20835;-66
2023/04/06 05:16:00;;;;;;;26.40;14.20;;;1.30;65.10;;;;;;5075018;28;20561;-65
2023/04/06 05:18:26;;;;;;;29.47;17.50;;;1.30;70.20;;;;;;5093694;28;20231;-65
2023/04/06 05:20:52;;;;;;;30.07;15.93;;;1.30;75.00;;;;;;5093174;28;20209;-65
2023/04/06 05:23:18;;;;;;;24.17;16.83;;;1.30;78.30;;;;;;5093606;28;20434;-64
2023/04/06 05:25:43;;;;;;;32.57;17.63;;;1.40;88.60;;;;;;5075348;28;20901;-65
2023/04/06 05:28:09;;;;;;;37.47;17.73;;;1.50;88.80;;;;;;5093594;28;20201;-65
2023/04/06 05:30:35;;;;;;;34.77;19.40;;;1.50;88.90;;;;;;5092973;28;20534;-65
2023/04/06 05:33:01;;;;;;;35.60;18.20;;;1.60;89.00;;;;;;5093274;28;20411;-65
2023/04/06 05:35:27;;;;;;;25.93;15.03;;;1.60;89.00;;;;;;5093292;28;20619;-65
2023/04/06 05:37:53;;;;;;;34.50;17.00;;;1.80;95.50;;;;;;5093516;28;20399;-66
2023/04/06 05:40:19;;;;;;;29.13;17.63;;;1.90;99.90;;;;;;5092836;28;20177;-65
2023/04/06 05:42:45;;;;;;;29.90;17.37;;;1.90;99.90;;;;;;5093468;28;20434;-65
2023/04/06 05:45:16;;;;;;;22.33;15.33;;;2.10;99.90;;;;;;5093464;28;20511;-65
2023/04/06 05:47:43;;;;;;;29.57;15.63;;;2.20;99.90;;;;;;5093238;28;20202;-65
2023/04/06 05:50:13;;;;;;;21.97;15.33;;;2.30;99.90;;;;;;5092015;28;20400;-65
2023/04/06 05:52:42;;;;;;;27.07;16.53;;;2.30;99.90;;;;;;5092522;28;20507;-66
2023/04/06 05:55:09;;;;;;;22.93;14.63;;;2.40;99.90;;;;;;5093333;28;20429;-65
2023/04/06 05:57:35;;;;;;;19.97;13.57;;;2.50;99.90;;;;;;5093255;28;20756;-65
2023/04/06 06:00:00;;;;;;;36.77;16.17;;;2.60;99.90;;;;;;5093034;28;20400;-65
2023/04/06 06:02:26;;;;;;;33.50;20.60;;;2.80;99.90;;;;;;5092520;28;20251;-65
2023/04/06 06:04:52;;;;;;;22.77;16.63;;;2.90;99.90;;;;;;5093263;28;20170;-65
2023/04/06 06:07:17;;;;;;;24.77;15.47;;;3.00;99.90;;;;;;5093195;28;20512;-65
2023/04/06 06:09:43;;;;;;;35.00;15.80;;;3.00;94.50;;;;;;5092677;28;20205;-65
2023/04/06 06:12:09;;;;;;;18.20;13.83;;;3.10;90.00;;;;;;5074030;28;20553;-65
2023/04/06 06:14:35;;;;;;;20.73;14.87;;;3.20;90.10;;;;;;5093105;28;20158;-65
2023/04/06 06:17:01;;;;;;;26.40;15.97;;;3.20;90.10;;;;;;5093051;28;20435;-65
2023/04/06 06:19:27;;;;;;;20.93;13.57;;;3.30;90.10;;;;;;5093162;28;20264;-65
2023/04/06 06:21:52;;;;;;;17.70;12.20;;;3.30;83.10;;;;;;5092314;28;20228;-65
2023/04/06 06:24:18;;;;;;;19.10;13.30;;;3.40;74.90;;;;;;5092869;28;20181;-65
2023/04/06 06:26:44;;;;;;;17.40;13.07;;;3.50;71.60;;;;;;5074530;28;20243;-65
2023/04/06 06:29:10;;;;;;;20.90;12.10;;;3.60;65.00;;;;;;5092889;28;20198;-65
2023/04/06 06:31:36;;;;;;;25.87;13.67;;;3.60;58.50;;;;;;5092220;28;20189;-67
2023/04/06 06:34:02;;;;;;;20.00;11.83;;;3.70;43.70;;;;;;5092980;28;20403;-65
2023/04/06 06:36:30;;;;;;;19.83;13.77;;;3.90;35.40;;;;;;5092801;28;20418;-65
2023/04/06 06:38:56;;;;;;;26.43;15.50;;;4.00;21.50;;;;;;5092856;28;20178;-65
2023/04/06 06:41:22;;;;;;;24.23;13.63;;;4.00;9.10;;;;;;5092286;28;20404;-65
2023/04/06 06:43:48;;;;;;;19.87;12.13;;;4.10;1.00;;;;;;5092805;28;20401;-65
2023/04/06 06:46:13;;;;;;;19.47;13.73;;;4.20;1.00;;;;;;5074389;28;20181;-65
2023/04/06 06:48:39;;;;;;;16.07;11.07;;;4.30;1.00;;;;;;5092386;28;20209;-65
2023/04/06 06:51:05;;;;;;;16.77;12.40;;;4.30;1.00;;;;;;5092103;28;20167;-64
2023/04/06 06:53:31;;;;;;;22.50;11.93;;;4.40;1.00;;;;;;5092748;28;20185;-65
2023/04/06 06:55:56;;;;;;;18.87;13.30;;;4.40;1.00;;;;;;5092737;28;20461;-65
2023/04/06 06:58:22;;;;;;;22.80;13.30;;;4.50;1.00;;;;;;5092560;28;20178;-65
2023/04/06 07:00:48;;;;;;;15.90;11.70;;;4.50;1.00;;;;;;5093938;28;20179;-65
2023/04/06 07:03:14;;;;;;;18.30;12.00;;;4.50;1.00;;;;;;5096339;28;20236;-65
2023/04/06 07:05:48;;;;;;;19.87;11.17;;;4.50;1.00;;;;;;5095837;28;20177;-65
2023/04/06 07:08:15;;;;;;;14.60;11.13;;;4.60;1.00;;;;;;5096380;28;20501;-65
2023/04/06 07:10:40;;;;;;;14.60;10.73;;;4.70;1.00;;;;;;5095656;28;20400;-65
2023/04/06 07:13:06;;;;;;;19.23;11.63;;;4.70;1.00;;;;;;5096246;28;20953;-65
2023/04/06 07:15:32;;;;;;;16.07;11.50;;;4.80;1.00;;;;;;5096322;28;20224;-65
2023/04/06 07:17:59;;;;;;;23.90;10.90;;;4.90;1.00;;;;;;5095023;28;20184;-65
2023/04/06 07:20:24;;;;;;;16.93;11.43;;;5.00;1.00;;;;;;5095511;28;20172;-65
2023/04/06 07:22:50;;;;;;;15.57;11.00;;;5.10;1.00;;;;;;5095451;28;20947;-65
2023/04/06 07:25:16;;;;;;;13.33;9.23;;;5.10;1.00;;;;;;5096191;28;20163;-65
2023/04/06 07:27:42;;;;;;;11.90;9.00;;;5.20;1.00;;;;;;5095914;28;20256;-65
2023/04/06 07:30:08;;;;;;;10.53;7.90;;;5.30;1.00;;;;;;5095345;28;20216;-65
2023/04/06 07:32:35;;;;;;;12.60;8.60;;;5.40;1.00;;;;;;5077635;28;20219;-65
2023/04/06 07:35:01;;;;;;;15.80;7.80;;;5.50;1.00;;;;;;5095882;28;20406;-65
2023/04/06 07:37:27;;;;;;;12.07;8.57;;;5.60;1.00;;;;;;5096098;28;20474;-65
2023/04/06 07:39:53;;;;;;;9.70;7.20;;;5.70;1.00;;;;;;5095069;28;20502;-67
2023/04/06 07:42:19;;;;;;;12.43;8.40;;;5.80;1.00;;;;;;5095168;28;20192;-65
2023/04/06 07:44:44;;;;;;;11.63;7.97;;;5.90;1.00;;;;;;5095771;28;20170;-65
2023/04/06 07:47:10;;;;;;;10.30;7.80;;;6.00;1.00;;;;;;5095620;28;20415;-68
2023/04/06 07:49:36;;;;;;;13.50;8.20;;;6.00;1.00;;;;;;5077431;28;20209;-67
2023/04/06 07:52:02;;;;;;;11.10;7.90;;;6.20;1.00;;;;;;5095017;28;20193;-67
2023/04/06 07:54:28;;;;;;;12.03;7.83;;;6.30;1.00;;;;;;5095570;28;20162;-67
2023/04/06 07:56:54;;;;;;;9.80;7.40;;;6.40;1.00;;;;;;5094738;28;20406;-65
2023/04/06 07:59:20;;;;;;;8.47;6.30;;;6.40;1.00;;;;;;5095662;28;20173;-67
2023/04/06 08:01:46;;;;;;;8.00;7.20;;;6.40;1.00;;;;;;5094760;28;20212;-67
2023/04/06 08:04:11;;;;;;;11.73;6.50;;;6.50;1.00;;;;;;5095433;28;20403;-68
2023/04/06 08:06:37;;;;;;;10.10;6.10;;;6.60;1.00;;;;;;5077413;28;20238;-67
2023/04/06 08:09:03;;;;;;;10.60;6.40;;;6.70;1.00;;;;;;5095150;28;20193;-69
2023/04/06 08:11:29;;;;;;;7.10;6.50;;;6.80;1.00;;;;;;5094024;28;20165;-74
2023/04/06 08:13:57;;;;;;;6.50;5.90;;;6.90;1.00;;;;;;5094381;28;20221;-66
2023/04/06 08:16:23;;;;;;;9.10;6.00;;;6.90;1.00;;;;;;5095127;28;20400;-68
2023/04/06 08:18:49;;;;;;;7.07;6.47;;;7.00;1.00;;;;;;5095186;28;20415;-68
2023/04/06 08:21:15;;;;;;;7.10;6.47;;;7.10;1.00;;;;;;5094188;28;20395;-72
2023/04/06 08:23:41;;;;;;;7.23;5.90;;;7.20;1.00;;;;;;5094929;28;20190;-67
2023/04/06 08:26:06;;;;;;;7.80;6.67;;;7.20;1.00;;;;;;5095046;28;20414;-68
2023/04/06 08:28:34;;;;;;;8.80;7.17;;;7.30;1.00;;;;;;5094779;28;20201;-68
2023/04/06 08:31:04;;;;;;;11.33;7.60;;;7.50;1.00;;;;;;5094149;28;20189;-68
2023/04/06 08:33:30;;;;;;;8.93;6.63;;;7.50;1.00;;;;;;5094334;28;20751;-68
2023/04/06 08:35:55;;;;;;;9.43;7.57;;;7.60;1.00;;;;;;5093989;28;20396;-68
2023/04/06 08:38:21;;;;;;;10.70;7.63;;;7.80;1.00;;;;;;5094785;28;20764;-68
2023/04/06 08:40:49;;;;;;;9.73;8.57;;;8.00;1.00;;;;;;5093976;28;20177;-67
2023/04/06 08:43:18;;;;;;;12.20;8.50;;;8.20;1.00;;;;;;5094407;28;20204;-68
2023/04/06 08:45:45;;;;;;;23.33;8.30;;;8.40;1.00;;;;;;5094594;28;20407;-68
2023/04/06 08:48:12;;;;;;;12.83;8.20;;;8.60;1.00;;;;;;5094467;28;20459;-68
2023/04/06 08:50:39;;;;;;;9.67;7.27;;;8.80;1.00;;;;;;5093239;28;20397;-68
2023/04/06 08:53:09;;;;;;;9.47;8.43;;;9.00;1.00;;;;;;5076196;28;20792;-68
2023/04/06 08:55:35;;;;;;;8.90;8.00;;;9.10;1.00;;;;;;5094214;28;20434;-68
2023/04/06 08:58:02;;;;;;;9.80;8.77;;;9.40;1.00;;;;;;5094259;28;20456;-67
2023/04/06 09:00:29;;;;;;;9.23;8.43;;;9.70;1.00;;;;;;5093662;28;20480;-68
2023/04/06 09:02:57;;;;;;;10.27;9.17;;;9.80;1.00;;;;;;5094020;28;20428;-67
2023/04/06 09:05:25;;;;;;;8.77;7.87;;;9.80;1.00;;;;;;5094073;28;20735;-69
2023/04/06 09:07:51;;;;;;;10.10;8.77;;;10.00;1.00;;;;;;5093952;28;20954;-69
2023/04/06 09:10:18;;;;;;;8.47;7.77;;;10.20;1.00;;;;;;5092872;28;20460;-69
2023/04/06 09:12:44;;;;;;;9.10;7.83;;;10.20;1.00;;;;;;5075697;28;20428;-68
2023/04/06 09:15:21;;;;;;;10.63;9.57;;;10.30;1.00;;;;;;5094003;28;20494;-69
2023/04/06 09:17:47;;;;;;;9.63;8.83;;;10.50;1.00;;;;;;5093844;28;20373;-69
2023/04/06 09:20:13;;;;;;;11.63;9.10;;;10.60;1.00;;;;;;5075023;28;20972;-70
2023/04/06 09:22:40;;;;;;;12.87;8.20;;;10.90;1.00;;;;;;5093819;28;20477;-69
2023/04/06 09:25:51;;;;;;;9.70;7.80;;;11.20;1.00;;;;;;5075037;28;20407;-70
2023/04/06 09:28:03;;;;;;;10.23;8.53;;;11.50;1.00;;;;;;5078821;28;20390;-69
2023/04/06 09:30:30;;;;;;;9.63;7.90;;;12.00;1.00;;;;;;5092939;28;20378;-69
2023/04/06 09:32:58;;;;;;;9.80;7.97;;;12.30;1.00;;;;;;5075337;28;20471;-70
2023/04/06 09:35:30;;;;;;;10.80;7.43;;;12.50;1.00;;;;;;5093642;28;20498;-69
2023/04/06 09:37:58;;;;;;;8.23;7.13;;;12.70;1.00;;;;;;5093506;28;20491;-70
2023/04/06 09:40:24;;;;;;;10.43;6.20;;;12.90;1.00;;;;;;5092993;28;20951;-69
2023/04/06 09:42:57;;;;;;;7.13;6.43;;;13.10;1.00;;;;;;5093438;28;20473;-69
2023/04/06 09:45:24;;;;;;;7.73;5.80;;;13.20;1.00;;;;;;5093024;28;20457;-69
2023/04/06 09:47:53;;;;;;;6.20;5.60;;;13.50;1.00;;;;;;5093130;28;20419;-70
2023/04/06 09:50:21;;;;;;;7.40;6.57;;;13.70;1.00;;;;;;5092768;28;20473;-70
2023/04/06 09:52:54;;;;;;;9.17;6.60;;;13.80;99.90;;;;;;5093305;28;20510;-70
2023/04/06 09:55:40;;;;;;;7.57;6.43;;;13.90;99.90;;;;;;5075262;28;20835;-70
2023/04/06 09:58:12;;;;;;;8.17;7.13;;;14.00;99.90;;;;;;5075271;28;20415;-70
2023/04/06 10:01:05;;;;;;;7.63;6.63;;;14.10;99.90;;;;;;5074431;28;20419;-69
2023/04/06 10:03:45;;;;;;;8.07;7.27;;;14.40;99.90;;;;;;5092636;28;20470;-70
2023/04/06 10:06:14;;;;;;;7.03;6.47;;;14.20;99.90;;;;;;5093204;28;20410;-70
2023/04/06 10:08:42;;;;;;;9.20;6.70;;;14.40;99.90;;;;;;5093232;28;20455;-70
2023/04/06 10:11:11;;;;;;;10.23;5.87;;;14.60;99.90;;;;;;5092477;28;20880;-69
2023/04/06 10:13:38;;;;;;;7.57;5.90;;;15.00;99.90;;;;;;5093121;28;20431;-70
2023/04/06 10:16:05;;;;;;;7.50;6.70;;;15.10;99.90;;;;;;5092973;28;20487;-69
2023/04/06 10:21:44;;;;;;;8.53;6.10;;;15.10;99.90;;;;;;5091788;28;20507;-69
2023/04/06 10:24:11;;;;;;;7.33;5.80;;;15.50;99.90;;;;;;5092990;28;20415;-70
2023/04/06 10:29:45;;;;;;;6.77;6.17;;;15.60;99.90;;;;;;5030596;28;20458;-69
2023/04/06 10:32:11;;;;;;;5.57;5.07;;;15.20;99.90;;;;;;5029682;28;20457;-69
2023/04/06 10:34:37;;;;;;;5.87;5.33;;;15.00;99.90;;;;;;5060666;28;20443;-70
2023/04/06 10:40:25;;;;;;;5.57;4.97;;;15.70;99.90;;;;;;4993400;28;20502;-70
2023/04/06 10:42:53;;;;;;;4.40;4.10;;;15.90;99.90;;;;;;5096836;28;20419;-69
2023/04/06 10:45:23;;;;;;;5.57;5.07;;;16.30;99.90;;;;;;5096876;28;20918;-71
2023/04/06 10:47:52;;;;;;;5.77;4.30;;;16.50;99.90;;;;;;5096720;28;20414;-70
2023/04/06 10:50:18;;;;;;;5.30;4.80;;;16.70;99.90;;;;;;5095913;28;20403;-71
2023/04/06 10:53:02;;;;;;;5.90;4.60;;;17.00;99.90;;;;;;5096596;28;20445;-71
2023/04/06 10:59:23;;;;;;;6.50;4.20;;;17.10;99.90;;;;;;5096073;28;20386;-70
2023/04/06 11:01:49;;;;;;;6.03;3.60;;;17.30;99.90;;;;;;5095481;28;20873;-70
2023/04/06 11:04:19;;;;;;;5.40;3.77;;;17.50;99.90;;;;;;5078250;28;20407;-71
2023/04/06 11:06:50;;;;;;;4.50;4.10;;;17.60;99.90;;;;;;5096386;28;20193;-70
2023/04/06 11:09:31;;;;;;;4.93;3.57;;;17.60;99.90;;;;;;5096341;28;20616;-70
2023/04/06 11:12:00;;;;;;;6.10;3.97;;;17.60;99.90;;;;;;5095354;28;20423;-70
2023/04/06 11:14:47;;;;;;;5.33;4.00;;;17.60;99.90;;;;;;5077777;28;20411;-70
2023/04/06 11:17:12;;;;;;;5.10;4.00;;;17.90;99.90;;;;;;5095444;28;20407;-71
2023/04/06 11:19:38;;;;;;;3.77;3.37;;;17.90;99.90;;;;;;5096333;28;20412;-71
2023/04/06 11:23:30;;;;;;;6.50;4.03;;;18.10;99.90;;;;;;5095340;28;20247;-70
2023/04/06 11:25:32;;;;;;;5.20;4.00;;;18.10;99.90;;;;;;5078478;28;20173;-70
2023/04/06 11:28:22;;;;;;;4.50;4.10;;;18.20;99.90;;;;;;5096035;28;20892;-70
2023/04/06 11:30:48;;;;;;;5.97;4.17;;;18.20;99.90;;;;;;5094952;28;20889;-70
2023/04/06 11:33:22;;;;;;;6.30;4.17;;;18.30;99.90;;;;;;5095460;28;20431;-71
2023/04/06 11:35:48;;;;;;;4.27;3.87;;;18.40;99.90;;;;;;5095911;28;20164;-70
2023/04/06 11:38:14;;;;;;;6.23;3.80;;;18.30;99.90;;;;;;5095917;28;20412;-69
2023/04/06 11:40:43;;;;;;;5.13;3.60;;;18.30;99.90;;;;;;5095052;28;20458;-70
2023/04/06 11:43:11;;;;;;;4.63;3.70;;;18.40;99.90;;;;;;5095700;28;20504;-71
2023/04/06 11:49:35;;;;;;;4.30;3.90;;;18.70;99.90;;;;;;5095225;28;20512;-71
2023/04/06 11:52:01;;;;;;;4.10;3.47;;;18.50;99.90;;;;;;5094161;28;20549;-69
2023/04/06 11:54:49;;;;;;;4.47;3.97;;;18.80;99.90;;;;;;5095476;28;20415;-71
2023/04/06 11:57:16;;;;;;;4.10;3.80;;;19.00;99.90;;;;;;5095694;28;20415;-71
2023/04/06 11:59:42;;;;;;;6.00;4.50;;;18.70;99.90;;;;;;5095469;28;20482;-70
2023/04/06 12:02:08;;;;;;;4.30;4.00;;;18.30;99.90;;;;;;5094707;28;20532;-72
2023/04/06 12:04:53;;;;;;;4.23;3.70;;;17.90;99.90;;;;;;5095313;28;20400;-71
2023/04/06 12:07:19;;;;;;;5.73;5.00;;;17.80;99.90;;;;;;5077482;28;20569;-69
2023/04/06 12:13:35;;;;;;;7.43;5.30;;;17.30;99.90;;;;;;5094988;28;20764;-70
2023/04/06 12:16:01;;;;;;;11.23;4.60;;;16.80;99.90;;;;;;5095242;28;20495;-70
2023/04/06 12:18:46;;;;;;;4.53;4.13;;;16.80;99.90;;;;;;5095110;28;20432;-71
2023/04/06 12:21:12;;;;;;;5.13;4.53;;;17.10;99.90;;;;;;5094275;28;20470;-71
2023/04/06 12:23:38;;;;;;;6.23;4.80;;;17.00;99.90;;;;;;5094865;28;20424;-71
2023/04/06 12:26:04;;;;;;;4.57;4.20;;;16.90;99.90;;;;;;5095002;28;20923;-69
2023/04/06 12:28:33;;;;;;;4.90;4.43;;;17.10;99.90;;;;;;5094468;28;20449;-72
2023/04/06 12:30:59;;;;;;;5.90;4.30;;;17.60;99.90;;;;;;5094087;28;20407;-71
2023/04/06 12:33:25;;;;;;;5.60;5.10;;;18.10;99.90;;;;;;5094735;28;20438;-69
2023/04/06 12:35:51;;;;;;;5.97;4.60;;;18.60;99.90;;;;;;5094783;28;20403;-72
2023/04/06 12:38:17;;;;;;;6.90;6.20;;;18.80;99.90;;;;;;5094586;28;20169;-70
2023/04/06 12:40:43;;;;;;;6.57;4.60;;;19.00;99.90;;;;;;5094080;28;20963;-69
2023/04/06 12:43:09;;;;;;;4.37;3.83;;;19.40;99.90;;;;;;5094422;28;20199;-71
2023/04/06 12:45:35;;;;;;;4.73;3.60;;;20.10;99.90;;;;;;5094241;28;20407;-71
2023/04/06 12:48:01;;;;;;;5.73;5.10;;;20.60;99.90;;;;;;5094618;28;20399;-70
2023/04/06 12:50:27;;;;;;;5.50;4.97;;;20.80;99.90;;;;;;5093832;28;20226;-70
2023/04/06 12:53:16;;;;;;;5.80;5.30;;;21.10;99.90;;;;;;5094438;28;20412;-70
2023/04/06 12:55:42;;;;;;;5.93;5.43;;;21.10;99.90;;;;;;5076205;28;20170;-70
2023/04/06 13:01:30;;;;;;;5.37;4.83;;;21.10;99.90;;;;;;5011044;28;20192;-70
2023/04/06 13:03:59;;;;;;;5.80;5.30;;;21.50;99.90;;;;;;5011910;28;20450;-71
2023/04/06 13:06:27;;;;;;;7.23;5.67;;;21.70;99.90;;;;;;5051737;28;20181;-70
2023/04/06 13:08:56;;;;;;;7.20;5.90;;;21.70;99.90;;;;;;5094094;28;20832;-71
2023/04/06 13:11:23;;;;;;;8.47;5.53;;;21.70;99.90;;;;;;5093306;28;20521;-69
2023/04/06 13:13:49;;;;;;;5.77;5.27;;;22.10;99.90;;;;;;5093917;28;20399;-69
2023/04/06 13:16:16;;;;;;;7.70;6.90;;;22.00;99.90;;;;;;5093950;28;20392;-70